Bookmark and Share
Track history (hours):
 

Flinterbrise

Last reported at 2014-Apr-21 02:33 UTC. Time now 2014-Apr-23 15:10 UTC.
Position N 59°22' E 023°46'.

Length 81 m; draft 4.8 m.

Type: Ship. MMSI: 246044000.

NotesDate/timePositionNaut miles runAvg speedWind from/ knotsBaromVisibWave heightAir tempDewpointWater temp
2014-Apr-21 02:33N 59°22' E 023°46'8 7.1
2014-Apr-21 01:24N 59°22' E 023°30'13 7.0
2014-Apr-20 23:33N 59°21' E 023°05'47 7.3
2014-Apr-20 17:05N 59°30' E 021°34'4 7.7
2014-Apr-20 16:33N 59°31' E 021°26'  
2014-Apr-14 18:32N 55°11' E 015°41'76 9.5
2014-Apr-14 10:33N 54°08' E 014°27'9 9.5
2014-Apr-14 09:34N 54°00' E 014°17'8 7.6
2014-Apr-14 08:33N 53°53' E 014°16'8 7.8
2014-Apr-14 07:33N 53°46' E 014°23'1010.5
2014-Apr-14 06:33N 53°38' E 014°34'9 9.1
2014-Apr-14 05:33N 53°29' E 014°37'4 0.2
2014-Apr-13 12:33N 53°25' E 014°37'1 0.5
2014-Apr-13 10:27N 53°26' E 014°35'0 0.0
2014-Apr-13 09:33N 53°26' E 014°35'0 0.0
2014-Apr-13 08:23N 53°26' E 014°35'0 0.0
2014-Apr-13 07:32N 53°26' E 014°35'0 0.0
2014-Apr-13 04:31N 53°26' E 014°35'0 0.0
2014-Apr-13 03:30N 53°26' E 014°35'0 0.0
2014-Apr-13 02:30N 53°26' E 014°35'0 0.0
2014-Apr-13 01:26N 53°26' E 014°35'0 0.0
2014-Apr-13 00:32N 53°26' E 014°35'0 0.0
2014-Apr-12 23:19N 53°26' E 014°35'0 0.0
2014-Apr-12 22:28N 53°26' E 014°35'0 0.0
2014-Apr-12 21:16N 53°26' E 014°35'0 0.0
2014-Apr-12 20:21N 53°26' E 014°35'0 0.0
2014-Apr-12 19:27N 53°26' E 014°35'0 0.0
2014-Apr-12 16:22N 53°26' E 014°35'0 0.0
2014-Apr-12 11:05N 53°26' E 014°35'1 1.1
2014-Apr-12 10:33N 53°27' E 014°36'8 7.7
2014-Apr-12 09:32N 53°35' E 014°36'9 9.3
2014-Apr-12 08:33N 53°42' E 014°28'1010.3
2014-Apr-12 07:33N 53°51' E 014°18'5 5.3
2014-Apr-12 06:33N 53°56' E 014°17'7 6.6
2014-Apr-12 05:33N 54°02' E 014°20'8 7.8
2014-Apr-12 04:33N 54°08' E 014°28'8 7.7
2014-Apr-12 03:29N 54°15' E 014°37'7 7.6
2014-Apr-12 02:33N 54°20' E 014°44'8 7.6
2014-Apr-12 01:28N 54°28' E 014°52'45 7.6
2014-Apr-11 19:33N 55°06' E 015°32'  

Dump ship's entire track history

sailing weather and tide predictions

Flinterbrise — PHCA — position and weather